createdAt,value
2022-09-28T00:02:09.475Z,100862.17
2022-09-28T00:05:27.173Z,100859.36
2022-09-28T00:09:06.329Z,100856.46
2022-09-28T00:12:43.744Z,100854.48
2022-09-28T00:16:24.174Z,100855.90
2022-09-28T00:20:02.868Z,100854.30
2022-09-28T00:23:42.040Z,100852.69
2022-09-28T00:27:20.474Z,100857.08
2022-09-28T00:30:59.869Z,100865.75
2022-09-28T00:34:40.545Z,100864.69
2022-09-28T00:38:20.016Z,100863.95
2022-09-28T00:41:57.224Z,100865.20
2022-09-28T00:45:36.185Z,100862.41
2022-09-28T00:49:19.003Z,100859.41
2022-09-28T00:53:23.996Z,100856.68
2022-09-28T00:57:04.014Z,100854.58
2022-09-28T01:00:42.966Z,100853.23
2022-09-28T01:04:23.522Z,100853.01
2022-09-28T01:08:04.756Z,100849.85
2022-09-28T01:11:43.462Z,100846.15
2022-09-28T01:15:21.792Z,100847.46
2022-09-28T01:19:32.595Z,100843.65
2022-09-28T01:23:58.094Z,100836.67
2022-09-28T01:28:10.326Z,100828.77
2022-09-28T01:31:56.857Z,100825.95
2022-09-28T01:35:50.765Z,100823.02
2022-09-28T01:39:35.847Z,100808.73
2022-09-28T01:43:28.101Z,100809.48
2022-09-28T01:47:11.047Z,100811.93
2022-09-28T01:50:54.129Z,100809.89
2022-09-28T01:54:43.566Z,100804.03
2022-09-28T01:58:38.301Z,100807.38
2022-09-28T02:02:20.080Z,100806.38
2022-09-28T02:06:06.328Z,100797.63
2022-09-28T02:10:03.836Z,100797.61
2022-09-28T02:13:59.334Z,100793.98
2022-09-28T02:17:36.537Z,100789.92
2022-09-28T02:21:32.732Z,100779.67
2022-09-28T02:25:38.764Z,100775.38
2022-09-28T02:29:16.405Z,100775.95
2022-09-28T02:32:58.410Z,100777.20
2022-09-28T02:36:35.938Z,100771.85
2022-09-28T02:40:29.084Z,100768.74
2022-09-28T02:44:40.109Z,100764.80
2022-09-28T02:48:44.143Z,100768.88
2022-09-28T02:52:38.319Z,100765.40
2022-09-28T02:56:24.351Z,100757.94
2022-09-28T03:00:20.230Z,100762.73
2022-09-28T03:04:09.535Z,100759.77
2022-09-28T03:08:21.307Z,100758.02
2022-09-28T03:12:08.405Z,100750.06
2022-09-28T03:15:48.510Z,100747.95
2022-09-28T03:19:30.879Z,100744.05
2022-09-28T03:23:25.039Z,100744.83
2022-09-28T03:27:04.168Z,100744.99
2022-09-28T03:30:42.062Z,100747.91
2022-09-28T03:34:19.401Z,100745.52
2022-09-28T03:37:57.556Z,100751.02
2022-09-28T03:41:36.214Z,100751.52
2022-09-28T03:45:14.581Z,100751.08
2022-09-28T03:48:51.513Z,100744.05
2022-09-28T03:52:28.588Z,100746.42
2022-09-28T03:56:13.490Z,100746.81
2022-09-28T03:59:52.183Z,100743.11
2022-09-28T04:03:29.956Z,100741.04
2022-09-28T04:07:09.366Z,100738.86
2022-09-28T04:10:46.832Z,100744.23
2022-09-28T04:14:24.118Z,100744.60
2022-09-28T04:18:01.266Z,100752.96
2022-09-28T04:21:39.274Z,100760.50
2022-09-28T04:25:18.044Z,100765.32
2022-09-28T04:28:55.191Z,100763.11
2022-09-28T04:32:33.565Z,100753.73
2022-09-28T04:36:11.282Z,100754.70
2022-09-28T04:39:49.288Z,100755.62
2022-09-28T04:43:27.375Z,100752.52
2022-09-28T04:47:07.174Z,100746.98
2022-09-28T04:50:44.070Z,100747.14
2022-09-28T04:54:22.753Z,100744.20
2022-09-28T04:58:00.109Z,100746.81
2022-09-28T05:01:39.720Z,100745.46
2022-09-28T05:05:16.967Z,100746.39
2022-09-28T05:08:57.716Z,100743.76
2022-09-28T05:12:35.523Z,100747.26
2022-09-28T05:16:15.632Z,100745.70
2022-09-28T05:19:53.716Z,100751.55
2022-09-28T05:23:31.886Z,100751.90
2022-09-28T05:27:14.458Z,100745.34
2022-09-28T05:30:52.279Z,100749.20
2022-09-28T05:34:30.053Z,100743.83
2022-09-28T05:38:07.736Z,100743.71
2022-09-28T05:41:45.819Z,100737.48
2022-09-28T05:45:23.930Z,100739.66
2022-09-28T05:49:00.808Z,100735.57
2022-09-28T05:52:41.431Z,100733.73
2022-09-28T05:56:25.237Z,100732.70
2022-09-28T06:00:07.966Z,100736.73
2022-09-28T06:03:47.363Z,100730.79
2022-09-28T06:07:24.689Z,100732.41
2022-09-28T06:11:02.945Z,100737.49
2022-09-28T06:14:40.960Z,100746.61
2022-09-28T06:18:19.458Z,100743.34
2022-09-28T06:21:59.378Z,100739.25
2022-09-28T06:25:37.157Z,100740.94
2022-09-28T06:29:18.675Z,100747.62
2022-09-28T06:32:58.481Z,100752.64
2022-09-28T06:36:37.348Z,100758.37
2022-09-28T06:40:14.980Z,100755.54
2022-09-28T06:43:53.052Z,100755.35
2022-09-28T06:47:31.966Z,100761.97
2022-09-28T06:51:08.908Z,100768.05
2022-09-28T06:54:45.841Z,100771.58
2022-09-28T06:58:43.359Z,100772.16
2022-09-28T07:02:03.376Z,100778.42
2022-09-28T07:05:40.092Z,100777.31
2022-09-28T07:09:31.613Z,100781.63
2022-09-28T07:13:35.020Z,100776.03
2022-09-28T07:17:14.183Z,100776.41
2022-09-28T07:20:54.674Z,100770.11
2022-09-28T07:24:31.849Z,100787.02
2022-09-28T07:28:28.953Z,100785.34
2022-09-28T07:31:47.179Z,100778.98
2022-09-28T07:35:25.252Z,100781.77
2022-09-28T07:39:03.606Z,100784.64
2022-09-28T07:42:41.971Z,100779.73
2022-09-28T07:46:19.543Z,100783.70
2022-09-28T07:49:57.758Z,100782.06
2022-09-28T07:53:36.369Z,100772.17
2022-09-28T07:57:15.507Z,100773.40
2022-09-28T08:00:52.957Z,100778.64
2022-09-28T08:04:31.328Z,100779.36
2022-09-28T08:08:10.479Z,100784.16
2022-09-28T08:11:48.681Z,100786.33
2022-09-28T08:15:27.053Z,100791.30
2022-09-28T08:19:05.666Z,100800.06
2022-09-28T08:22:42.828Z,100800.23
2022-09-28T08:26:22.012Z,100797.87
2022-09-28T08:29:59.247Z,100797.59
2022-09-28T08:33:36.736Z,100798.91
2022-09-28T08:37:14.215Z,100800.05
2022-09-28T08:41:18.457Z,100797.55
2022-09-28T08:45:06.490Z,100800.69
2022-09-28T08:49:13.539Z,100792.56
2022-09-28T08:52:59.823Z,100797.06
2022-09-28T08:56:57.292Z,100792.67
2022-09-28T09:00:52.879Z,100791.05
2022-09-28T09:04:33.973Z,100791.21
2022-09-28T09:08:25.464Z,100792.70
2022-09-28T09:12:31.219Z,100789.48
2022-09-28T09:16:12.337Z,100790.56
2022-09-28T09:19:58.844Z,100789.85
2022-09-28T09:23:57.446Z,100783.34
2022-09-28T09:28:07.001Z,100784.46
2022-09-28T09:31:49.148Z,100788.08
2022-09-28T09:35:48.510Z,100780.90
2022-09-28T09:39:38.788Z,100773.71
2022-09-28T09:44:13.537Z,100761.75
2022-09-28T09:48:02.665Z,100765.68
2022-09-28T09:52:06.458Z,100755.46
2022-09-28T09:55:51.697Z,100758.09
2022-09-28T09:59:37.941Z,100754.18
2022-09-28T10:03:30.459Z,100750.27
2022-09-28T10:07:14.853Z,100751.46
2022-09-28T10:11:07.550Z,100748.88
2022-09-28T10:14:48.710Z,100746.36
2022-09-28T10:18:27.401Z,100736.28
2022-09-28T10:22:14.164Z,100754.98
2022-09-28T10:25:43.490Z,100749.70
2022-09-28T10:29:26.790Z,100748.89
2022-09-28T10:33:03.998Z,100747.23
2022-09-28T10:37:06.988Z,100742.61
2022-09-28T10:40:47.595Z,100734.31
2022-09-28T10:44:25.447Z,100736.06
2022-09-28T10:48:20.837Z,100731.58
2022-09-28T10:51:52.598Z,100730.94
2022-09-28T10:55:27.088Z,100729.15
2022-09-28T10:59:28.700Z,100720.91
2022-09-28T11:03:23.459Z,100712.83
2022-09-28T11:07:01.936Z,100713.02
2022-09-28T11:10:38.793Z,100710.85
2022-09-28T11:14:42.696Z,100706.40
2022-09-28T11:17:53.855Z,100706.19
2022-09-28T11:21:43.466Z,100703.46
2022-09-28T11:25:32.018Z,100700.61
2022-09-28T11:29:36.781Z,100693.27
2022-09-28T11:33:18.987Z,100692.22
2022-09-28T11:37:24.072Z,100680.52
2022-09-28T11:41:07.737Z,100678.23
2022-09-28T11:45:31.825Z,100661.88
2022-09-28T11:48:29.109Z,100653.23
2022-09-28T11:52:32.594Z,100645.80
2022-09-28T11:56:40.409Z,100648.60
2022-09-28T12:00:22.179Z,100643.30
2022-09-28T12:04:09.524Z,100634.61
2022-09-28T12:07:53.982Z,100632.27
2022-09-28T12:11:36.561Z,100623.58
2022-09-28T12:15:19.607Z,100615.77
2022-09-28T12:19:04.615Z,100610.08
2022-09-28T12:22:55.705Z,100603.91
2022-09-28T12:26:38.982Z,100594.25
2022-09-28T12:30:21.365Z,100589.23
2022-09-28T12:33:58.313Z,100584.75
2022-09-28T12:37:46.318Z,100577.32
2022-09-28T12:41:35.173Z,100568.04
2022-09-28T12:45:23.005Z,100565.52
2022-09-28T12:53:59.788Z,100544.10
2022-09-28T12:58:31.057Z,100546.14
2022-09-28T13:01:33.339Z,100535.35
2022-09-28T13:05:31.597Z,100533.04
2022-09-28T13:09:22.658Z,100528.89
2022-09-28T13:12:51.576Z,100521.09
2022-09-28T13:16:10.600Z,100513.48
2022-09-28T13:20:03.025Z,100510.69
2022-09-28T13:23:34.019Z,100510.61
2022-09-28T13:27:32.122Z,100512.41
2022-09-28T13:31:20.306Z,100498.77
2022-09-28T13:34:50.638Z,100497.95
2022-09-28T13:38:31.079Z,100502.75
2022-09-28T13:42:47.249Z,100494.02
2022-09-28T13:45:59.399Z,100494.39
2022-09-28T13:49:57.333Z,100481.63
2022-09-28T13:54:12.735Z,100474.61
2022-09-28T13:57:40.054Z,100462.39
2022-09-28T14:01:25.477Z,100449.75
2022-09-28T14:05:21.880Z,100433.60
2022-09-28T14:09:07.462Z,100425.37
2022-09-28T14:12:46.720Z,100418.42
2022-09-28T14:16:26.492Z,100417.89
2022-09-28T14:20:16.955Z,100413.25
2022-09-28T14:24:24.102Z,100409.48
2022-09-28T14:27:53.463Z,100407.17
2022-09-28T14:31:28.649Z,100400.08
2022-09-28T14:35:18.786Z,100392.80
2022-09-28T14:38:56.665Z,100389.53
2022-09-28T14:42:34.127Z,100382.03
2022-09-28T14:46:13.986Z,100389.03
2022-09-28T14:50:01.739Z,100388.46
2022-09-28T14:53:50.081Z,100384.38
2022-09-28T14:57:29.632Z,100378.20
2022-09-28T15:01:02.504Z,100368.38
2022-09-28T15:04:51.890Z,100362.36
2022-09-28T15:08:21.214Z,100358.02
2022-09-28T15:12:13.009Z,100360.34
2022-09-28T15:16:04.609Z,100355.88
2022-09-28T15:20:17.700Z,100341.50
2022-09-28T15:23:40.389Z,100341.95
2022-09-28T15:37:42.561Z,100332.03
2022-09-28T15:40:38.134Z,100330.28
2022-09-28T15:44:37.813Z,100332.19
2022-09-28T15:48:48.703Z,100328.80
2022-09-28T15:52:30.719Z,100311.78
2022-09-28T15:56:12.506Z,100314.65
2022-09-28T16:00:21.095Z,100325.94
2022-09-28T16:03:29.880Z,100324.48
2022-09-28T16:07:13.104Z,100324.94
2022-09-28T16:11:15.531Z,100331.18
2022-09-28T16:14:55.961Z,100325.80
2022-09-28T16:18:35.209Z,100323.65
2022-09-28T16:22:23.442Z,100314.64
2022-09-28T16:26:06.007Z,100310.83
2022-09-28T16:30:04.418Z,100305.72
2022-09-28T16:33:30.608Z,100311.08
2022-09-28T16:37:31.459Z,100309.63
2022-09-28T16:41:09.600Z,100303.55
2022-09-28T16:44:47.727Z,100302.85
2022-09-28T16:48:30.649Z,100296.67
2022-09-28T16:52:12.317Z,100297.23
2022-09-28T16:55:53.481Z,100294.51
2022-09-28T16:59:26.208Z,100293.62
2022-09-28T17:03:14.363Z,100289.63
2022-09-28T17:06:41.197Z,100295.23
2022-09-28T17:10:27.884Z,100289.09
2022-09-28T17:14:05.637Z,100290.06
2022-09-28T17:17:42.642Z,100283.77
2022-09-28T17:21:21.153Z,100275.36
2022-09-28T17:25:00.555Z,100274.34
2022-09-28T17:28:37.964Z,100286.63
2022-09-28T17:32:19.208Z,100292.63
2022-09-28T17:36:03.164Z,100295.98
2022-09-28T17:39:42.479Z,100299.90
2022-09-28T17:43:19.984Z,100298.56
2022-09-28T17:47:02.135Z,100295.61
2022-09-28T17:50:44.347Z,100302.73
2022-09-28T17:54:23.439Z,100308.57
2022-09-28T17:58:02.235Z,100308.35
2022-09-28T18:02:02.012Z,100296.65
2022-09-28T18:09:34.978Z,100303.66
2022-09-28T18:13:14.645Z,100305.63
2022-09-28T18:16:52.763Z,100312.49
2022-09-28T18:20:31.228Z,100310.35
2022-09-28T18:24:08.385Z,100315.85
2022-09-28T18:27:46.264Z,100319.02
2022-09-28T18:31:24.233Z,100316.89
2022-09-28T18:35:01.613Z,100326.56
2022-09-28T18:38:39.374Z,100323.86
2022-09-28T18:42:17.219Z,100314.18
2022-09-28T18:45:54.953Z,100314.64
2022-09-28T18:49:31.927Z,100305.15
2022-09-28T18:53:11.340Z,100311.05
2022-09-28T18:56:49.104Z,100301.92
2022-09-28T19:00:46.818Z,100302.74
2022-09-28T19:04:05.702Z,100305.73
2022-09-28T19:07:43.837Z,100308.06
2022-09-28T19:11:22.403Z,100309.20
2022-09-28T19:15:09.723Z,100315.02
2022-09-28T19:18:47.757Z,100319.94
2022-09-28T19:22:24.500Z,100324.54
2022-09-28T19:26:03.104Z,100324.55
2022-09-28T19:29:41.418Z,100333.50
2022-09-28T19:33:18.671Z,100337.71
2022-09-28T19:36:55.403Z,100339.41
2022-09-28T19:40:36.524Z,100350.66
2022-09-28T19:44:16.375Z,100351.65
2022-09-28T19:47:58.682Z,100350.36
2022-09-28T19:51:38.782Z,100352.86
2022-09-28T19:55:21.571Z,100354.80
2022-09-28T19:59:03.752Z,100364.92
2022-09-28T20:02:42.312Z,100361.96
2022-09-28T20:06:19.205Z,100358.67
2022-09-28T20:09:56.357Z,100358.36
2022-09-28T20:13:36.883Z,100360.45
2022-09-28T20:17:16.350Z,100355.01
2022-09-28T20:21:05.147Z,100357.76
2022-09-28T20:24:41.804Z,100357.79
2022-09-28T20:28:19.368Z,100362.38
2022-09-28T20:31:58.279Z,100357.74
2022-09-28T20:35:35.101Z,100356.31
2022-09-28T20:39:13.890Z,100352.89
2022-09-28T20:42:51.856Z,100354.43
2022-09-28T20:46:30.115Z,100361.90
2022-09-28T20:50:07.971Z,100371.77
2022-09-28T20:53:54.325Z,100368.80
2022-09-28T20:57:31.724Z,100363.52
2022-09-28T21:01:17.546Z,100364.59
2022-09-28T21:04:54.411Z,100370.95
2022-09-28T21:08:31.664Z,100370.48
2022-09-28T21:12:10.170Z,100375.14
2022-09-28T21:15:48.966Z,100373.94
2022-09-28T21:19:26.507Z,100378.20
2022-09-28T21:23:03.519Z,100376.37
2022-09-28T21:26:41.307Z,100370.38
2022-09-28T21:30:19.462Z,100374.39
2022-09-28T21:34:00.319Z,100375.70
2022-09-28T21:37:34.402Z,100375.23
2022-09-28T21:41:11.634Z,100375.95
2022-09-28T21:44:49.268Z,100385.16
2022-09-28T21:48:27.694Z,100384.13
2022-09-28T21:52:06.482Z,100390.39
2022-09-28T21:55:43.837Z,100389.52
2022-09-28T21:59:21.710Z,100386.55
2022-09-28T22:02:59.948Z,100389.77
2022-09-28T22:06:37.418Z,100386.64
2022-09-28T22:10:15.408Z,100388.48
2022-09-28T22:13:55.529Z,100387.29
2022-09-28T22:17:34.938Z,100388.48
2022-09-28T22:21:15.798Z,100391.53
2022-09-28T22:24:54.456Z,100393.37
2022-09-28T22:28:31.795Z,100387.91
2022-09-28T22:32:09.577Z,100388.33
2022-09-28T22:35:49.508Z,100385.04
2022-09-28T22:39:27.651Z,100382.81
2022-09-28T22:43:04.553Z,100376.39
2022-09-28T22:46:42.306Z,100369.02
2022-09-28T22:50:20.282Z,100362.30
2022-09-28T22:53:58.606Z,100356.52
2022-09-28T22:57:36.535Z,100357.39
2022-09-28T23:01:23.177Z,100356.50
2022-09-28T23:05:01.037Z,100355.28
2022-09-28T23:08:38.781Z,100353.69
2022-09-28T23:12:16.153Z,100346.48
2022-09-28T23:16:03.183Z,100348.70
2022-09-28T23:19:41.979Z,100349.11
2022-09-28T23:23:19.868Z,100348.30
2022-09-28T23:26:58.177Z,100347.21
2022-09-28T23:30:36.437Z,100342.14
2022-09-28T23:34:14.026Z,100345.33
2022-09-28T23:37:51.238Z,100348.22
2022-09-28T23:41:29.613Z,100348.68
2022-09-28T23:45:08.607Z,100346.52
2022-09-28T23:48:46.517Z,100345.06
2022-09-28T23:52:25.516Z,100347.05
2022-09-28T23:56:02.420Z,100344.73
2022-09-28T23:59:39.801Z,100341.23
